Time;durP1;ratioP1;P1;durP2;ratioP2;P2;SDS_P1;SDS_P2;PMS_P1;PMS_P2;Temp;Humidity;BMP_temperature;BMP_pressure;BME280_temperature;BME280_humidity;BME280_pressure;Samples;Min_cycle;Max_cycle;Signal;HPM_P1;HPM_P2
2022/03/12 00:00:13;;;;;;;14.70;8.57;;;;;;;8.73;41.26;101224.97;4993288;28;20058;-89
2022/03/12 00:02:39;;;;;;;14.13;8.73;;;;;;;8.74;41.38;101231.00;4991821;28;20423;-90
2022/03/12 00:05:07;;;;;;;17.77;9.07;;;;;;;8.75;41.47;101233.59;4990269;28;20102;-89
2022/03/12 00:07:33;;;;;;;16.98;8.52;;;;;;;8.77;41.49;101230.97;4992570;28;20045;-89
2022/03/12 00:09:59;;;;;;;15.23;8.57;;;;;;;8.77;41.51;101230.97;4992943;28;20026;-90
2022/03/12 00:12:25;;;;;;;14.05;8.25;;;;;;;8.77;41.75;101238.75;4992583;28;20473;-90
2022/03/12 00:14:50;;;;;;;14.98;8.65;;;;;;;8.76;41.71;101235.31;4981361;28;20105;-90
2022/03/12 00:17:18;;;;;;;19.08;8.18;;;;;;;8.77;41.82;101236.16;4992858;28;20065;-89
2022/03/12 00:19:43;;;;;;;15.65;8.40;;;;;;;8.75;41.49;101233.59;4987398;28;20054;-90
2022/03/12 00:22:12;;;;;;;14.85;8.25;;;;;;;8.76;42.00;101237.03;4991006;28;20053;-89
2022/03/12 00:24:44;;;;;;;16.20;8.93;;;;;;;8.77;41.06;101233.56;4986636;28;20041;-89
2022/03/12 00:27:10;;;;;;;14.77;8.63;;;;;;;8.78;41.46;101237.88;4976839;28;20039;-89
2022/03/12 00:29:36;;;;;;;14.40;8.50;;;;;;;8.78;41.64;101237.88;4996969;28;20034;-90
2022/03/12 00:32:04;;;;;;;13.80;8.32;;;;;;;8.78;41.26;101237.88;4988448;28;20259;-90
2022/03/12 00:34:30;;;;;;;14.45;8.20;;;;;;;8.81;40.65;101245.63;4990661;28;20030;-89
2022/03/12 00:36:55;;;;;;;15.82;9.07;;;;;;;8.81;41.29;101243.03;4975902;28;20049;-89
2022/03/12 00:39:21;;;;;;;16.33;8.73;;;;;;;8.82;41.74;101249.94;4956077;28;20077;-89
2022/03/12 00:41:47;;;;;;;12.95;8.05;;;;;;;8.81;41.89;101256.00;4981875;28;20038;-89
2022/03/12 00:44:17;;;;;;;17.30;8.63;;;;;;;8.81;41.71;101258.59;4972865;28;20508;-89
2022/03/12 00:46:42;;;;;;;13.82;8.77;;;;;;;8.82;41.18;101265.53;4973155;28;20026;-89
2022/03/12 00:49:07;;;;;;;15.05;8.93;;;;;;;8.81;41.09;101259.44;4972116;28;20031;-89
2022/03/12 00:51:33;;;;;;;16.65;9.13;;;;;;;8.84;41.71;101255.09;4986666;28;20332;-90
2022/03/12 00:53:58;;;;;;;14.52;8.25;;;;;;;8.82;42.07;101255.13;4971878;28;20433;-89
2022/03/12 00:56:23;;;;;;;18.92;8.68;;;;;;;8.83;41.46;101262.03;4971996;28;20030;-90
2022/03/12 00:58:49;;;;;;;18.48;9.07;;;;;;;8.84;41.75;101257.69;4971746;28;21476;-89
2022/03/12 01:01:14;;;;;;;15.30;9.02;;;;;;;8.84;41.85;101258.56;4954625;28;20027;-90
2022/03/12 01:03:40;;;;;;;16.63;9.38;;;;;;;8.86;42.02;101251.63;4955125;28;20117;-89
2022/03/12 01:06:06;;;;;;;17.38;8.45;;;;;;;8.85;42.20;101255.09;4972929;28;20056;-88
2022/03/12 01:08:33;;;;;;;15.40;8.90;;;;;;;8.89;42.29;101261.94;4977563;28;20471;-89
2022/03/12 01:11:03;;;;;;;16.20;8.70;;;;;;;8.90;42.28;101257.63;4973185;28;20040;-89
2022/03/12 01:13:28;;;;;;;14.75;8.48;;;;;;;8.92;42.19;101267.13;4972017;28;20030;-89
2022/03/12 01:15:54;;;;;;;14.65;8.98;;;;;;;8.93;42.45;101253.25;4973020;28;20352;-89
2022/03/12 01:18:21;;;;;;;16.35;8.75;;;;;;;8.95;43.18;101261.06;4972583;28;20035;-89
2022/03/12 01:20:47;;;;;;;18.45;9.13;;;;;;;8.97;43.19;101264.47;4985070;28;20474;-90
2022/03/12 01:23:15;;;;;;;16.80;9.23;;;;;;;8.99;43.66;101259.25;4960299;28;20022;-89
2022/03/12 01:25:41;;;;;;;13.13;8.45;;;;;;;9.01;43.75;101262.69;4972310;28;20085;-89
2022/03/12 01:28:09;;;;;;;15.77;9.15;;;;;;;9.02;43.69;101267.03;4954383;28;20037;-90
2022/03/12 01:30:34;;;;;;;15.35;8.63;;;;;;;9.03;43.65;101264.41;4954830;28;20031;-89
2022/03/12 01:33:00;;;;;;;16.20;8.95;;;;;;;9.04;43.54;101265.28;4971433;28;20023;-89
2022/03/12 01:35:26;;;;;;;19.10;9.02;;;;;;;9.05;44.58;101264.41;4959257;28;20046;-89
2022/03/12 01:37:51;;;;;;;16.20;9.15;;;;;;;9.05;45.06;101272.19;4991468;28;20446;-88
2022/03/12 01:40:16;;;;;;;19.48;8.90;;;;;;;9.03;45.79;101274.78;4991844;28;20022;-89
2022/03/12 01:42:43;;;;;;;14.82;9.00;;;;;;;9.02;45.78;101277.41;4984578;28;20101;-89
2022/03/12 01:45:10;;;;;;;15.45;8.70;;;;;;;9.00;45.41;101279.16;4989957;28;20033;-89
2022/03/12 01:47:35;;;;;;;16.38;8.82;;;;;;;8.99;45.96;101277.44;4991509;28;20034;-89
2022/03/12 01:50:01;;;;;;;14.48;8.82;;;;;;;8.97;45.93;101280.03;4989284;28;20089;-88
2022/03/12 01:52:28;;;;;;;16.58;9.30;;;;;;;8.95;46.82;101281.81;4984881;28;20394;-89
2022/03/12 01:54:55;;;;;;;19.08;9.07;;;;;;;8.93;47.06;101283.56;4989914;28;20492;-89
2022/03/12 01:57:20;;;;;;;17.08;9.18;;;;;;;8.90;46.96;101287.03;4988875;28;20402;-90
2022/03/12 01:59:46;;;;;;;15.45;9.45;;;;;;;8.88;47.43;101291.38;4989875;28;20477;-90
2022/03/12 02:02:13;;;;;;;14.80;8.88;;;;;;;8.85;46.64;101291.44;4990933;28;20084;-89
2022/03/12 02:04:41;;;;;;;15.20;8.77;;;;;;;8.83;47.38;101288.00;4991908;28;20428;-89
2022/03/12 02:07:07;;;;;;;15.50;8.80;;;;;;;8.80;47.77;101288.88;4994157;28;20030;-89
2022/03/12 02:09:32;;;;;;;16.70;8.82;;;;;;;8.79;47.79;101291.50;4995210;28;20485;-89
2022/03/12 02:11:57;;;;;;;14.48;8.82;;;;;;;8.78;47.85;101285.47;4994240;28;20030;-89
2022/03/12 02:14:27;;;;;;;15.48;9.45;;;;;;;8.76;47.70;101279.41;4995271;28;20109;-89
2022/03/12 02:16:55;;;;;;;15.77;8.57;;;;;;;8.74;47.42;101283.75;4990235;28;20117;-89
2022/03/12 02:19:22;;;;;;;14.07;8.23;;;;;;;8.73;47.52;101281.16;4994085;28;20026;-89
2022/03/12 02:21:54;;;;;;;16.35;9.02;;;;;;;8.73;47.20;101286.34;4993990;28;20029;-89
2022/03/12 02:24:21;;;;;;;15.55;9.73;;;;;;;8.72;46.87;101284.63;4989418;28;20025;-89
2022/03/12 02:26:47;;;;;;;14.40;8.80;;;;;;;8.72;46.89;101284.63;4990768;28;20030;-89
2022/03/12 02:29:20;;;;;;;18.60;9.23;;;;;;;8.71;47.48;101290.72;4983037;28;20022;-89
2022/03/12 02:32:10;;;;;;;18.30;9.27;;;;;;;8.71;47.15;101288.13;4994481;28;20030;-89
2022/03/12 02:34:43;;;;;;;13.52;8.68;;;;;;;8.69;48.32;101279.50;4992571;28;20093;-89
2022/03/12 02:37:09;;;;;;;16.00;9.52;;;;;;;8.67;49.48;101289.03;4984091;28;20054;-89
2022/03/12 02:39:37;;;;;;;18.00;8.85;;;;;;;8.63;49.82;101289.06;4992084;28;20117;-89
2022/03/12 02:42:06;;;;;;;16.92;9.82;;;;;;;8.61;49.80;101293.41;4994330;28;20023;-89
2022/03/12 02:44:31;;;;;;;17.92;8.88;;;;;;;8.58;48.91;101290.84;4990415;28;20043;-89
2022/03/12 02:47:13;;;;;;;16.23;9.25;;;;;;;8.57;48.88;101296.91;4994643;28;20069;-89
2022/03/12 02:49:48;;;;;;;16.15;9.05;;;;;;;8.54;48.88;101289.13;4988662;28;20030;-89
2022/03/12 02:52:15;;;;;;;16.30;9.00;;;;;;;8.52;49.18;101290.91;4991538;28;20034;-89
2022/03/12 02:54:41;;;;;;;17.00;9.23;;;;;;;8.51;49.19;101289.19;4992936;28;20031;-89
2022/03/12 02:57:07;;;;;;;19.02;8.77;;;;;;;8.50;49.29;101303.88;4990470;28;20038;-89
2022/03/12 02:59:33;;;;;;;17.00;8.45;;;;;;;8.50;49.22;101300.44;4991412;28;20080;-89
2022/03/12 03:02:03;;;;;;;14.82;8.63;;;;;;;8.48;48.45;101297.00;4992934;28;20042;-89
2022/03/12 03:04:35;;;;;;;14.77;9.23;;;;;;;8.48;48.44;101304.78;5006498;28;20033;-90
2022/03/12 03:07:05;;;;;;;14.27;8.50;;;;;;;8.47;48.38;101298.69;4991779;28;20026;-89
2022/03/12 03:09:30;;;;;;;14.48;8.63;;;;;;;8.47;48.54;101303.03;4987852;28;20034;-89
2022/03/12 03:12:02;;;;;;;14.75;8.70;;;;;;;8.47;48.68;101308.22;4993761;28;20036;-89
2022/03/12 03:14:27;;;;;;;16.77;8.52;;;;;;;8.47;48.12;101305.63;4990633;28;20089;-90
2022/03/12 03:16:54;;;;;;;15.25;8.90;;;;;;;8.49;47.92;101306.50;4992329;28;20477;-89
2022/03/12 03:19:26;;;;;;;15.18;9.15;;;;;;;8.49;48.27;101303.91;4991975;28;20489;-88
2022/03/12 03:21:55;;;;;;;16.02;9.20;;;;;;;8.49;48.13;101303.91;4992234;28;20428;-89
2022/03/12 03:24:22;;;;;;;16.52;9.27;;;;;;;8.49;48.33;101309.09;4991202;28;20030;-89
2022/03/12 03:26:47;;;;;;;18.40;9.25;;;;;;;8.47;48.79;101301.28;4992343;28;20385;-89
2022/03/12 03:29:13;;;;;;;17.85;9.18;;;;;;;8.46;48.46;101303.91;4991293;28;20478;-89
2022/03/12 03:31:39;;;;;;;16.50;8.63;;;;;;;8.44;48.84;101309.13;4990916;28;20159;-89
2022/03/12 03:34:04;;;;;;;17.30;9.18;;;;;;;8.42;48.97;101315.16;4985826;28;20113;-89
2022/03/12 03:36:30;;;;;;;16.08;9.20;;;;;;;8.38;48.64;101321.25;4981929;28;20126;-89
2022/03/12 03:38:56;;;;;;;16.95;8.88;;;;;;;8.30;49.35;101324.78;4974092;28;20027;-89
2022/03/12 03:41:21;;;;;;;14.23;8.63;;;;;;;8.27;49.49;101323.97;4955148;28;20038;-89
2022/03/12 03:43:48;;;;;;;17.20;8.57;;;;;;;8.21;49.50;101330.03;4955213;28;20030;-89
2022/03/12 03:46:18;;;;;;;16.05;9.32;;;;;;;8.16;49.46;101337.00;4973329;28;20390;-89
2022/03/12 03:48:46;;;;;;;19.08;9.25;;;;;;;8.12;50.31;101337.88;4973556;28;20102;-88
2022/03/12 03:51:11;;;;;;;14.23;8.57;;;;;;;8.08;50.54;101343.94;4973477;28;20126;-89
2022/03/12 03:53:37;;;;;;;15.73;9.27;;;;;;;8.03;50.27;101346.59;4973629;28;20113;-87
2022/03/12 03:56:02;;;;;;;15.27;9.07;;;;;;;8.01;50.14;101353.50;4954887;28;20058;-87
2022/03/12 03:58:30;;;;;;;15.95;9.35;;;;;;;7.97;50.41;101344.03;4955646;28;20034;-87
2022/03/12 04:00:58;;;;;;;17.92;9.43;;;;;;;7.92;51.23;101348.41;4960329;28;20041;-87
2022/03/12 04:03:24;;;;;;;19.40;8.93;;;;;;;7.86;51.40;101341.50;4971759;28;20031;-87
2022/03/12 04:05:50;;;;;;;17.48;9.35;;;;;;;7.82;51.82;101347.59;4972672;28;20027;-87
2022/03/12 04:08:16;;;;;;;15.48;9.10;;;;;;;7.79;52.14;101352.78;4972123;28;20376;-89
2022/03/12 04:10:42;;;;;;;15.50;8.50;;;;;;;7.74;52.51;101351.06;4955562;28;20022;-89
2022/03/12 04:13:14;;;;;;;15.35;8.95;;;;;;;7.71;52.53;101350.25;4955755;28;20490;-89
2022/03/12 04:15:40;;;;;;;15.18;8.85;;;;;;;7.67;53.03;101359.75;4955167;28;20105;-89
2022/03/12 04:18:07;;;;;;;16.55;9.38;;;;;;;7.63;53.43;101358.06;4972426;28;20463;-88
2022/03/12 04:20:34;;;;;;;17.13;9.10;;;;;;;7.59;54.01;101365.00;4972333;28;20037;-89
2022/03/12 04:22:59;;;;;;;14.35;9.02;;;;;;;7.56;54.43;101371.88;4976803;28;20023;-89
2022/03/12 04:25:24;;;;;;;14.65;8.57;;;;;;;7.53;54.63;101374.47;4971109;28;20133;-90
2022/03/12 04:27:50;;;;;;;16.17;8.50;;;;;;;7.50;54.40;101375.38;4955604;28;20030;-88
2022/03/12 04:30:18;;;;;;;14.25;8.95;;;;;;;7.48;54.49;101378.84;4972642;28;20077;-89
2022/03/12 04:32:45;;;;;;;16.63;9.23;;;;;;;7.46;54.64;101377.97;4954858;28;20485;-89
2022/03/12 04:35:10;;;;;;;15.18;9.18;;;;;;;7.43;54.74;101374.53;4972502;28;20026;-88
2022/03/12 04:37:37;;;;;;;15.10;8.77;;;;;;;7.41;55.21;101365.06;4990186;28;20046;-89
2022/03/12 04:40:11;;;;;;;17.45;9.18;;;;;;;7.38;54.97;101378.88;4980000;28;20034;-89
2022/03/12 04:42:38;;;;;;;16.30;9.32;;;;;;;7.33;55.41;101375.44;4990313;28;20022;-89
2022/03/12 04:45:08;;;;;;;15.30;8.93;;;;;;;7.29;55.55;101373.72;4990241;28;20026;-89
2022/03/12 04:47:34;;;;;;;14.20;9.07;;;;;;;7.25;55.86;101369.44;4990690;28;20473;-90
2022/03/12 04:49:59;;;;;;;17.42;9.18;;;;;;;7.21;56.32;101372.88;4991162;28;20030;-88
2022/03/12 04:52:25;;;;;;;15.73;9.13;;;;;;;7.18;56.45;101380.66;4991907;28;20052;-88
2022/03/12 04:54:50;;;;;;;15.18;8.88;;;;;;;7.15;56.75;101384.13;4992048;28;20034;-89
2022/03/12 04:57:15;;;;;;;13.70;8.75;;;;;;;7.13;56.91;101391.91;4992308;28;20084;-89
2022/03/12 04:59:41;;;;;;;15.27;8.40;;;;;;;7.10;57.46;101386.72;4986392;28;20030;-89
2022/03/12 05:02:11;;;;;;;17.90;8.48;;;;;;;7.09;57.62;101392.75;4988535;28;20084;-89
2022/03/12 05:04:36;;;;;;;16.17;8.80;;;;;;;7.05;57.56;101385.88;4990545;28;20488;-88
2022/03/12 05:07:11;;;;;;;15.15;8.38;;;;;;;7.05;57.58;101395.38;4989096;28;20038;-89
2022/03/12 05:09:36;;;;;;;13.85;8.07;;;;;;;7.01;58.08;101394.50;4981464;28;20034;-89
2022/03/12 05:12:05;;;;;;;13.60;7.93;;;;;;;6.99;58.61;101404.00;4991875;28;20030;-89
2022/03/12 05:14:36;;;;;;;12.23;7.28;;;;;;;6.97;59.02;101403.16;4991151;28;20026;-89
2022/03/12 05:17:06;;;;;;;15.73;8.18;;;;;;;6.92;59.25;101405.72;4990497;28;20034;-89
2022/03/12 05:19:34;;;;;;;14.63;8.05;;;;;;;6.90;59.94;101402.31;4990386;28;20504;-89
2022/03/12 05:21:59;;;;;;;14.50;8.10;;;;;;;6.89;59.94;101402.28;4979749;28;20030;-89
2022/03/12 05:24:25;;;;;;;13.80;8.20;;;;;;;6.87;60.29;101399.72;4985095;28;20022;-88
2022/03/12 05:26:50;;;;;;;14.48;8.18;;;;;;;6.84;61.00;101403.13;4991175;28;20033;-89
2022/03/12 05:29:15;;;;;;;12.93;7.85;;;;;;;6.84;61.00;101408.31;4991509;28;20529;-89
2022/03/12 05:31:41;;;;;;;14.63;8.38;;;;;;;6.83;61.43;101416.09;4989512;28;20022;-89
2022/03/12 05:34:06;;;;;;;15.60;7.47;;;;;;;6.81;61.50;101415.22;4989592;28;20030;-89
2022/03/12 05:36:31;;;;;;;14.82;8.13;;;;;;;6.79;61.95;101417.81;4991188;28;20406;-89
2022/03/12 05:38:57;;;;;;;16.63;8.45;;;;;;;6.79;62.13;101419.53;4992696;28;20038;-89
2022/03/12 05:41:22;;;;;;;13.52;8.07;;;;;;;6.77;61.97;101416.97;4993022;28;20482;-89
2022/03/12 05:43:49;;;;;;;14.07;8.13;;;;;;;6.76;62.10;101412.66;4997120;28;20064;-89
2022/03/12 05:46:16;;;;;;;14.40;7.78;;;;;;;6.74;62.99;101422.13;4996030;28;20061;-89
2022/03/12 05:48:42;;;;;;;14.15;7.63;;;;;;;6.73;63.16;101412.66;4995524;28;20393;-89
2022/03/12 05:51:09;;;;;;;12.68;8.05;;;;;;;6.72;63.53;101417.81;4997077;28;20466;-89
2022/03/12 05:53:35;;;;;;;13.18;7.70;;;;;;;6.71;63.65;101422.13;4997087;28;20034;-89
2022/03/12 05:56:01;;;;;;;12.95;7.57;;;;;;;6.69;63.58;101421.25;4982820;28;20026;-89
2022/03/12 05:58:26;;;;;;;12.13;7.55;;;;;;;6.67;63.94;101431.63;4997926;28;20035;-89
2022/03/12 06:00:54;;;;;;;10.77;6.85;;;;;;;6.67;64.31;101428.16;4995485;28;20022;-89
2022/03/12 06:03:21;;;;;;;14.48;7.40;;;;;;;6.65;65.07;101422.13;4993035;28;20029;-89
2022/03/12 06:05:51;;;;;;;11.63;7.25;;;;;;;6.67;65.11;101430.72;4996554;28;20076;-89
2022/03/12 06:08:22;;;;;;;11.63;7.28;;;;;;;6.67;65.72;101436.78;4996733;28;20022;-89
2022/03/12 06:10:51;;;;;;;11.40;7.05;;;;;;;6.68;66.34;101435.03;4995598;28;20018;-89
2022/03/12 06:13:18;;;;;;;11.77;6.53;;;;;;;6.68;66.45;101435.91;4995608;28;20430;-89
2022/03/12 06:15:45;;;;;;;12.25;6.72;;;;;;;6.70;66.43;101437.66;4989525;28;20040;-89
2022/03/12 06:18:11;;;;;;;9.70;6.05;;;;;;;6.71;65.96;101432.47;4994288;28;20030;-89
2022/03/12 06:20:38;;;;;;;12.27;6.45;;;;;;;6.72;65.88;101441.94;4994545;28;20093;-89
2022/03/12 06:23:04;;;;;;;11.35;6.40;;;;;;;6.72;66.91;101444.53;4992984;28;20037;-89
2022/03/12 06:25:30;;;;;;;12.13;6.75;;;;;;;6.72;67.32;101449.72;4994026;28;20030;-90
2022/03/12 06:27:55;;;;;;;11.23;6.68;;;;;;;6.72;67.40;101449.72;4996349;28;20022;-89
2022/03/12 06:30:26;;;;;;;9.38;5.82;;;;;;;6.75;67.26;101454.88;4992447;28;20023;-89
2022/03/12 06:32:55;;;;;;;10.13;5.82;;;;;;;6.76;67.44;101456.59;4995733;28;20081;-89
2022/03/12 06:35:20;;;;;;;10.85;6.65;;;;;;;6.77;67.72;101463.50;4994265;28;20494;-89
2022/03/12 06:37:46;;;;;;;10.23;6.05;;;;;;;6.79;67.86;101461.78;4993076;28;20030;-89
2022/03/12 06:40:14;;;;;;;9.65;6.25;;;;;;;6.81;67.71;101467.81;4995516;28;20025;-90
2022/03/12 06:42:42;;;;;;;10.45;6.28;;;;;;;6.83;67.73;101468.66;4993727;28;20029;-89
2022/03/12 06:45:08;;;;;;;11.55;6.65;;;;;;;6.86;68.05;101470.41;4991929;28;20022;-90
2022/03/12 06:47:35;;;;;;;11.13;6.43;;;;;;;6.90;67.86;101461.78;4994717;28;20096;-88
2022/03/12 06:50:01;;;;;;;11.93;6.32;;;;;;;6.93;67.83;101463.50;4994364;28;20034;-89
2022/03/12 06:52:28;;;;;;;10.63;5.95;;;;;;;6.97;67.95;101467.81;4991910;28;20057;-89
2022/03/12 06:54:55;;;;;;;10.82;6.40;;;;;;;6.99;67.81;101466.94;5004723;28;20022;-89
2022/03/12 06:57:21;;;;;;;10.38;6.40;;;;;;;7.02;68.07;101476.41;4989404;28;20019;-88
2022/03/12 06:59:46;;;;;;;10.32;6.60;;;;;;;7.04;68.01;101476.44;4992265;28;20026;-89
2022/03/12 07:02:12;;;;;;;10.95;6.00;;;;;;;7.06;68.37;101475.56;4993011;28;20026;-89
2022/03/12 07:04:38;;;;;;;10.48;6.13;;;;;;;7.10;68.54;101477.28;4989969;28;20023;-89
2022/03/12 07:07:03;;;;;;;10.10;6.32;;;;;;;7.13;68.59;101472.13;4992238;28;20041;-89
2022/03/12 07:09:29;;;;;;;10.40;6.15;;;;;;;7.19;68.60;101475.53;4989605;28;20370;-89
2022/03/12 07:11:58;;;;;;;10.05;6.30;;;;;;;7.23;69.48;101472.09;4990361;28;20058;-89
2022/03/12 07:14:24;;;;;;;9.32;5.93;;;;;;;7.28;69.50;101481.56;4987603;28;20034;-89
2022/03/12 07:16:49;;;;;;;9.38;5.82;;;;;;;7.36;69.62;101488.47;4992868;28;20030;-89
2022/03/12 07:19:14;;;;;;;10.52;6.22;;;;;;;7.42;69.90;101481.53;4991786;28;20165;-89
2022/03/12 07:21:40;;;;;;;9.27;6.10;;;;;;;7.50;70.20;101493.63;4992427;28;20022;-89
2022/03/12 07:24:05;;;;;;;10.30;5.75;;;;;;;7.56;70.65;101496.16;4988513;28;20104;-89
2022/03/12 07:26:30;;;;;;;9.52;5.65;;;;;;;7.62;70.29;101501.34;4991488;28;20041;-89
2022/03/12 07:28:56;;;;;;;10.85;5.72;;;;;;;7.69;70.21;101486.66;4991234;28;20482;-90
2022/03/12 07:31:21;;;;;;;10.38;5.28;;;;;;;7.74;70.44;101485.75;4992233;28;20022;-89
2022/03/12 07:33:47;;;;;;;9.60;5.85;;;;;;;7.79;70.77;101488.31;4988180;28;20105;-90
2022/03/12 07:36:12;;;;;;;7.43;5.10;;;;;;;7.82;70.75;101485.72;4990230;28;20513;-89
2022/03/12 07:38:38;;;;;;;8.70;5.30;;;;;;;7.88;70.21;101490.03;4990040;28;20102;-89
2022/03/12 07:41:03;;;;;;;8.90;5.50;;;;;;;7.94;70.39;101497.78;4991267;28;20027;-89
2022/03/12 07:43:29;;;;;;;9.00;5.63;;;;;;;8.00;70.45;101505.53;4993963;28;20082;-89
2022/03/12 07:45:54;;;;;;;8.45;5.55;;;;;;;8.07;70.44;101508.09;4996705;28;20022;-89
2022/03/12 07:48:20;;;;;;;9.43;5.75;;;;;;;8.13;70.05;101518.44;4999056;28;20018;-89
2022/03/12 07:50:46;;;;;;;8.95;5.78;;;;;;;8.19;70.31;101519.25;4993257;28;20089;-89
2022/03/12 07:53:14;;;;;;;9.07;5.43;;;;;;;8.26;70.23;101527.88;4985432;28;20031;-89
2022/03/12 07:55:40;;;;;;;10.38;5.97;;;;;;;8.32;70.43;101526.97;4991213;28;20053;-89
2022/03/12 07:58:06;;;;;;;8.80;5.78;;;;;;;8.40;69.95;101539.88;4991459;28;20391;-89
2022/03/12 08:00:32;;;;;;;10.07;5.97;;;;;;;8.44;69.91;101536.41;4991444;28;20104;-90
2022/03/12 08:02:59;;;;;;;8.85;5.93;;;;;;;8.49;69.20;101539.88;4990605;28;20118;-89
2022/03/12 08:05:25;;;;;;;10.15;5.82;;;;;;;8.54;69.72;101545.03;4992690;28;20093;-90
2022/03/12 08:07:57;;;;;;;8.60;5.32;;;;;;;8.60;69.00;101540.66;4980672;28;20401;-90
2022/03/12 08:10:23;;;;;;;8.55;5.35;;;;;;;8.65;69.35;101543.22;4989848;28;20108;-89
2022/03/12 08:12:50;;;;;;;10.02;5.80;;;;;;;8.72;70.00;101547.53;4990929;28;20033;-89
2022/03/12 08:15:16;;;;;;;8.80;5.75;;;;;;;8.78;69.55;101544.00;4991023;28;20027;-90
2022/03/12 08:17:43;;;;;;;8.90;5.20;;;;;;;8.80;69.39;101552.66;4991008;28;20088;-88
2022/03/12 08:20:10;;;;;;;7.28;5.07;;;;;;;8.84;69.25;101556.97;4986631;28;20048;-90
2022/03/12 08:22:40;;;;;;;10.43;5.82;;;;;;;8.87;69.31;101550.88;4990172;28;20037;-90
2022/03/12 08:25:07;;;;;;;8.90;5.47;;;;;;;8.92;68.03;101567.28;4989061;28;20604;-88
2022/03/12 08:27:35;;;;;;;10.98;6.03;;;;;;;8.93;68.97;101569.84;4993190;28;20045;-86
2022/03/12 08:30:00;;;;;;;11.68;6.32;;;;;;;8.96;69.17;101561.19;4996689;28;20030;-89
2022/03/12 08:32:26;;;;;;;10.85;6.20;;;;;;;9.00;68.78;101559.44;4997380;28;20033;-88
2022/03/12 08:34:51;;;;;;;9.55;6.03;;;;;;;9.03;69.02;101556.81;4997052;28;20057;-90
2022/03/12 08:37:16;;;;;;;8.60;5.85;;;;;;;9.08;68.95;101565.41;4996486;28;20120;-89
2022/03/12 08:39:41;;;;;;;9.27;5.82;;;;;;;9.12;68.97;101572.31;4995150;28;20504;-89
2022/03/12 08:42:08;;;;;;;9.63;5.60;;;;;;;9.19;68.79;101576.59;4995070;28;20035;-89
2022/03/12 08:44:34;;;;;;;9.40;5.93;;;;;;;9.26;68.61;101573.06;4990514;28;20019;-89
2022/03/12 08:46:59;;;;;;;9.73;6.22;;;;;;;9.35;68.68;101582.50;4997659;28;20092;-89
2022/03/12 08:49:24;;;;;;;16.77;5.78;;;;;;;9.43;67.38;101582.44;4997715;28;20106;-88
2022/03/12 08:51:50;;;;;;;8.95;6.03;;;;;;;9.49;67.93;101582.38;4992617;28;20124;-90
2022/03/12 08:54:15;;;;;;;9.57;6.03;;;;;;;9.53;67.62;101581.50;4994223;28;20042;-89
2022/03/12 08:56:41;;;;;;;9.88;5.18;;;;;;;9.62;67.11;101579.66;4996284;28;20033;-89
2022/03/12 08:59:07;;;;;;;11.10;5.63;;;;;;;9.66;67.32;101578.75;4996264;28;20034;-91
2022/03/12 09:01:33;;;;;;;8.52;5.45;;;;;;;9.72;67.69;101576.97;4999275;28;20044;-91
2022/03/12 09:03:58;;;;;;;9.50;6.03;;;;;;;9.79;67.56;101572.56;4997349;28;20025;-90
2022/03/12 09:06:27;;;;;;;8.77;5.50;;;;;;;9.86;67.38;101581.16;4997798;28;20030;-89
2022/03/12 09:08:53;;;;;;;9.48;5.53;;;;;;;9.94;66.68;101581.06;4996298;28;20029;-88
2022/03/12 09:11:18;;;;;;;8.60;5.03;;;;;;;10.00;65.87;101570.59;4994957;28;20488;-88
2022/03/12 09:13:45;;;;;;;7.68;5.28;;;;;;;10.08;66.65;101573.97;4997178;28;20168;-89
2022/03/12 09:16:11;;;;;;;7.88;5.03;;;;;;;10.13;66.10;101577.38;4994917;28;20034;-87
2022/03/12 09:18:36;;;;;;;8.60;5.30;;;;;;;10.20;65.87;101582.50;4989935;28;20038;-89
2022/03/12 09:21:02;;;;;;;8.98;5.22;;;;;;;10.26;65.72;101583.28;4995181;28;20498;-88
2022/03/12 09:23:27;;;;;;;10.23;5.20;;;;;;;10.32;65.95;101583.22;4997321;28;20040;-87
2022/03/12 09:25:52;;;;;;;9.75;5.22;;;;;;;10.42;65.75;101583.13;4996806;28;20040;-87
2022/03/12 09:28:19;;;;;;;9.23;4.80;;;;;;;10.51;64.22;101580.38;4993186;28;20141;-86
2022/03/12 09:30:52;;;;;;;9.02;5.25;;;;;;;10.59;64.21;101588.13;4995341;28;20493;-86
2022/03/12 09:33:19;;;;;;;8.18;4.50;;;;;;;10.65;64.23;101594.97;4999396;28;20034;-87
2022/03/12 09:35:45;;;;;;;8.82;4.88;;;;;;;10.68;63.33;101594.91;4996448;28;20049;-89
2022/03/12 09:38:10;;;;;;;8.30;4.63;;;;;;;10.70;63.23;101587.94;4994417;28;20112;-89
2022/03/12 09:40:36;;;;;;;9.10;4.65;;;;;;;10.72;63.32;101592.25;4995662;28;20113;-88
2022/03/12 09:43:02;;;;;;;7.03;4.85;;;;;;;10.74;63.06;101595.72;4999152;28;20447;-88
2022/03/12 09:45:28;;;;;;;8.50;4.75;;;;;;;10.78;63.45;101591.31;4997420;28;20034;-89
2022/03/12 09:47:53;;;;;;;8.63;4.72;;;;;;;10.87;63.26;101592.91;4994262;28;20066;-89
2022/03/12 09:50:19;;;;;;;8.05;4.90;;;;;;;10.96;62.91;101595.38;4994292;28;20057;-91
2022/03/12 09:52:44;;;;;;;7.35;4.40;;;;;;;11.04;62.54;101588.31;4997416;28;20058;-90
2022/03/12 09:55:10;;;;;;;9.10;4.72;;;;;;;11.11;62.90;101573.44;4999144;28;20476;-90
2022/03/12 09:57:35;;;;;;;9.43;4.60;;;;;;;11.22;61.93;101575.88;4998094;28;20046;-91
2022/03/12 10:00:07;;;;;;;8.73;4.88;;;;;;;11.29;61.53;101582.69;4995259;28;20034;-88
2022/03/12 10:02:32;;;;;;;;;;;;;;;11.36;61.44;101586.03;4996723;28;20058;-90
2022/03/12 10:04:57;;;;;;;6.78;4.30;;;;;;;11.35;61.32;101586.97;4996638;28;19930;-89
2022/03/12 10:07:23;;;;;;;7.57;4.03;;;;;;;11.34;61.33;101590.44;4996635;28;20103;-89
2022/03/12 10:09:49;;;;;;;9.05;4.72;;;;;;;11.37;61.50;101596.47;4992264;28;20063;-91
2022/03/12 10:12:14;;;;;;;7.45;4.35;;;;;;;11.41;60.92;101599.00;4991981;28;20512;-91
2022/03/12 10:14:40;;;;;;;9.38;5.85;;;;;;;11.42;60.36;101604.19;4995602;28;20500;-91
2022/03/12 10:17:06;;;;;;;7.00;3.78;;;;;;;11.44;59.31;101607.63;4996998;28;20038;-87
2022/03/12 10:19:34;;;;;;;8.48;4.35;;;;;;;11.48;59.79;101600.63;4996205;28;20029;-88
2022/03/12 10:22:00;;;;;;;6.45;3.58;;;;;;;11.52;59.39;101610.09;4996277;28;20036;-87
2022/03/12 10:24:25;;;;;;;8.00;3.00;;;;;;;11.54;57.91;101608.34;5000289;28;20495;-90
2022/03/12 10:26:51;;;;;;;7.85;2.72;;;;;;;11.59;57.26;101603.03;5000885;28;20096;-89
2022/03/12 10:29:16;;;;;;;6.97;2.42;;;;;;;11.61;56.38;101602.16;5000183;28;20550;-89
2022/03/12 10:31:42;;;;;;;7.25;2.13;;;;;;;11.62;56.90;101603.84;4998371;28;20026;-90
2022/03/12 10:34:18;;;;;;;5.10;1.85;;;;;;;11.66;57.02;101608.09;4999050;28;20034;-87
2022/03/12 10:36:45;;;;;;;6.85;2.03;;;;;;;11.69;56.99;101605.44;4998279;28;20046;-89
2022/03/12 10:39:11;;;;;;;9.45;3.92;;;;;;;11.74;56.74;101610.56;5000844;28;20044;-89
2022/03/12 10:41:39;;;;;;;6.75;3.28;;;;;;;11.78;56.81;101612.25;5000471;28;20124;-88
2022/03/12 10:44:06;;;;;;;5.20;2.30;;;;;;;11.83;56.27;101612.16;5001902;28;20552;-89
2022/03/12 10:46:33;;;;;;;6.80;3.20;;;;;;;11.88;56.40;101612.94;5002255;28;20034;-88
2022/03/12 10:49:00;;;;;;;8.73;3.25;;;;;;;11.94;56.07;101609.34;4999892;28;20496;-88
2022/03/12 10:51:28;;;;;;;5.00;2.45;;;;;;;11.95;55.76;101614.56;5001936;28;20038;-89
2022/03/12 10:54:15;;;;;;;7.03;2.40;;;;;;;11.96;55.80;101618.84;5000480;28;20080;-88
2022/03/12 10:56:51;;;;;;;5.30;2.20;;;;;;;11.94;55.25;101612.84;5002012;28;20053;-87
2022/03/12 10:59:20;;;;;;;6.05;2.55;;;;;;;11.94;54.93;101606.75;4998555;28;20076;-88
2022/03/12 11:01:53;;;;;;;7.85;2.40;;;;;;;11.94;55.48;101607.63;5000076;28;20030;-89
2022/03/12 11:04:27;;;;;;;6.55;2.78;;;;;;;12.01;55.26;101604.91;5001214;28;20053;-89
2022/03/12 11:06:56;;;;;;;6.93;2.38;;;;;;;12.11;55.62;101607.31;5001219;28;20060;-88
2022/03/12 11:09:36;;;;;;;5.10;2.40;;;;;;;12.27;55.57;101607.88;5000014;28;20095;-87
2022/03/12 11:12:04;;;;;;;6.63;2.40;;;;;;;12.41;53.64;101604.09;5002265;28;20485;-90
2022/03/12 11:14:31;;;;;;;6.00;2.20;;;;;;;12.49;52.40;101602.19;5000419;28;20076;-89
2022/03/12 11:16:57;;;;;;;5.78;1.90;;;;;;;12.55;52.48;101606.44;4998571;28;20041;-90
2022/03/12 11:19:37;;;;;;;6.35;2.25;;;;;;;12.68;53.43;101604.38;4997377;28;20038;-90
2022/03/12 11:22:14;;;;;;;5.57;1.90;;;;;;;12.81;52.65;101607.59;4998964;28;20038;-89
2022/03/12 11:24:52;;;;;;;6.15;2.28;;;;;;;12.84;52.50;101608.38;4999959;28;20642;-90